Time;durP1;ratioP1;P1;durP2;ratioP2;P2;SDS_P1;SDS_P2;PMS_P1;PMS_P2;Temp;Humidity;BMP_temperature;BMP_pressure;BME280_temperature;BME280_humidity;BME280_pressure;Samples;Min_cycle;Max_cycle;Signal;HPM_P1;HPM_P2
2022/03/03 00:00:37;;;;;;;12.75;8.10;;;-4.60;99.90;;;;;;4391117;32;20538;-62
2022/03/03 00:03:03;;;;;;;14.15;8.90;;;-4.60;99.90;;;;;;4392932;32;20077;-63
2022/03/03 00:05:29;;;;;;;13.10;9.48;;;-4.50;99.90;;;;;;4392698;32;20069;-61
2022/03/03 00:07:56;;;;;;;14.18;9.00;;;-4.60;99.90;;;;;;4392396;32;20241;-62
2022/03/03 00:10:22;;;;;;;13.30;8.18;;;-4.70;99.90;;;;;;4378517;32;20480;-62
2022/03/03 00:12:48;;;;;;;13.35;8.82;;;-4.70;99.90;;;;;;4391498;32;20166;-61
2022/03/03 00:15:15;;;;;;;15.50;9.75;;;-4.70;99.90;;;;;;4392463;32;20074;-61
2022/03/03 00:17:41;;;;;;;14.70;8.98;;;-4.60;99.90;;;;;;4391079;32;20085;-63
2022/03/03 00:20:08;;;;;;;13.45;8.38;;;-4.70;99.90;;;;;;4391037;32;20515;-62
2022/03/03 00:22:34;;;;;;;14.32;8.93;;;-4.40;99.90;;;;;;4390941;32;20082;-61
2022/03/03 00:25:01;;;;;;;12.00;8.35;;;-4.60;99.90;;;;;;4391375;32;20156;-62
2022/03/03 00:27:27;;;;;;;15.43;9.05;;;-4.60;99.90;;;;;;4392621;32;20090;-61
2022/03/03 00:29:53;;;;;;;12.77;8.27;;;-4.70;99.90;;;;;;4390906;32;20085;-61
2022/03/03 00:32:20;;;;;;;13.40;8.65;;;-4.70;99.90;;;;;;4390861;32;20104;-62
2022/03/03 00:34:46;;;;;;;13.45;8.55;;;-4.50;99.90;;;;;;4377747;32;20100;-62
2022/03/03 00:37:12;;;;;;;14.25;9.07;;;-4.30;99.90;;;;;;4391100;32;20081;-62
2022/03/03 00:39:39;;;;;;;14.27;9.15;;;-4.30;99.90;;;;;;4392666;32;20074;-63
2022/03/03 00:42:05;;;;;;;13.55;8.77;;;-4.30;99.90;;;;;;4392250;32;20174;-62
2022/03/03 00:44:32;;;;;;;14.18;9.75;;;-4.30;99.90;;;;;;4379020;32;20084;-62
2022/03/03 00:46:58;;;;;;;15.02;9.73;;;-4.40;99.90;;;;;;4392659;32;20085;-61
2022/03/03 00:49:25;;;;;;;15.15;9.40;;;-4.40;99.90;;;;;;4390280;32;20112;-63
2022/03/03 00:51:51;;;;;;;15.27;9.15;;;-4.50;99.90;;;;;;4392046;32;20522;-60
2022/03/03 00:54:17;;;;;;;14.98;9.63;;;-4.50;99.90;;;;;;4392213;32;20088;-62
2022/03/03 00:56:44;;;;;;;15.60;9.65;;;-4.60;99.90;;;;;;4390744;32;20096;-61
2022/03/03 00:59:11;;;;;;;14.23;9.02;;;-4.50;99.90;;;;;;4391869;32;20506;-62
2022/03/03 01:01:37;;;;;;;14.13;9.20;;;-4.50;99.90;;;;;;4391938;32;20157;-60
2022/03/03 01:04:04;;;;;;;15.43;9.20;;;-4.70;99.90;;;;;;4391683;32;20081;-62
2022/03/03 01:06:30;;;;;;;15.80;10.50;;;-4.60;99.90;;;;;;4392181;32;20189;-62
2022/03/03 01:08:57;;;;;;;14.18;9.32;;;-4.60;99.90;;;;;;4391814;32;20078;-61
2022/03/03 01:11:23;;;;;;;16.20;10.38;;;-4.60;99.90;;;;;;4390384;32;20078;-61
2022/03/03 01:13:49;;;;;;;15.25;9.30;;;-4.50;99.90;;;;;;4390318;32;20112;-61
2022/03/03 01:16:16;;;;;;;16.15;9.75;;;-4.50;99.90;;;;;;4377699;32;20149;-61
2022/03/03 01:18:42;;;;;;;15.93;9.73;;;-4.50;99.90;;;;;;4390611;32;20108;-60
2022/03/03 01:21:09;;;;;;;15.93;9.65;;;-4.50;99.90;;;;;;4390792;32;20084;-61
2022/03/03 01:23:35;;;;;;;16.25;10.10;;;-4.50;99.90;;;;;;4392170;32;20083;-60
2022/03/03 01:26:01;;;;;;;15.15;9.95;;;-4.40;99.90;;;;;;4393201;32;20077;-62
2022/03/03 01:28:28;;;;;;;17.15;9.35;;;-4.60;99.90;;;;;;4393243;32;20093;-61
2022/03/03 01:30:54;;;;;;;15.80;9.43;;;-4.50;99.90;;;;;;4392240;32;20096;-62
2022/03/03 01:33:20;;;;;;;15.25;9.88;;;-4.50;99.90;;;;;;4391835;32;20089;-61
2022/03/03 01:35:47;;;;;;;14.77;9.43;;;-4.50;99.90;;;;;;4391411;32;20172;-61
2022/03/03 01:38:13;;;;;;;14.07;8.63;;;-4.50;99.90;;;;;;4391539;32;20082;-61
2022/03/03 01:40:40;;;;;;;16.35;10.32;;;-4.50;99.90;;;;;;4391720;32;20070;-62
2022/03/03 01:43:06;;;;;;;15.95;9.75;;;-4.50;99.90;;;;;;4377500;32;20182;-62
2022/03/03 01:45:33;;;;;;;15.02;9.75;;;-4.50;99.90;;;;;;4391227;32;20086;-61
2022/03/03 01:47:59;;;;;;;15.18;9.60;;;-4.60;99.90;;;;;;4391590;32;20085;-62
2022/03/03 01:50:27;;;;;;;14.43;9.60;;;-4.60;99.90;;;;;;4377348;32;20133;-62
2022/03/03 01:52:53;;;;;;;16.80;9.55;;;-4.70;99.90;;;;;;4390745;32;20066;-61
2022/03/03 01:55:19;;;;;;;15.60;9.85;;;-4.60;99.90;;;;;;4391483;32;20164;-62
2022/03/03 01:57:49;;;;;;;15.30;10.25;;;-4.40;99.90;;;;;;4390237;32;20182;-62
2022/03/03 02:00:16;;;;;;;14.80;8.98;;;-4.60;99.90;;;;;;4391633;32;20150;-61
2022/03/03 02:02:43;;;;;;;14.05;9.27;;;-4.60;99.90;;;;;;4389907;32;20097;-62
2022/03/03 02:05:09;;;;;;;14.52;9.00;;;-4.50;99.90;;;;;;4390147;32;20078;-62
2022/03/03 02:07:36;;;;;;;13.15;8.43;;;-4.70;99.90;;;;;;4390278;32;20123;-61
2022/03/03 02:10:04;;;;;;;16.20;9.65;;;-4.70;99.90;;;;;;4390239;32;20096;-62
2022/03/03 02:12:31;;;;;;;13.38;8.50;;;-4.70;99.90;;;;;;4390152;32;20129;-60
2022/03/03 02:14:57;;;;;;;13.15;8.63;;;-4.60;99.90;;;;;;4391215;32;20088;-62
2022/03/03 02:17:24;;;;;;;16.92;8.98;;;-4.60;99.90;;;;;;4391292;32;20441;-61
2022/03/03 02:19:50;;;;;;;14.30;8.98;;;-4.80;99.90;;;;;;4391268;32;20086;-62
2022/03/03 02:22:17;;;;;;;14.68;9.27;;;-4.80;99.90;;;;;;4389751;32;20081;-61
2022/03/03 02:24:43;;;;;;;13.93;8.60;;;-4.90;99.90;;;;;;4377147;32;20089;-61
2022/03/03 02:27:10;;;;;;;13.80;8.55;;;-4.90;99.90;;;;;;4391266;32;20093;-61
2022/03/03 02:29:37;;;;;;;13.70;8.50;;;-4.90;99.90;;;;;;4389559;32;20530;-61
2022/03/03 02:32:06;;;;;;;14.15;8.38;;;-4.70;99.90;;;;;;4390018;32;20079;-61
2022/03/03 02:34:33;;;;;;;14.48;9.23;;;-4.70;99.90;;;;;;4390662;32;20108;-61
2022/03/03 02:37:00;;;;;;;15.30;9.75;;;-4.50;99.90;;;;;;4391438;32;20088;-60
2022/03/03 02:39:26;;;;;;;14.68;9.65;;;-4.70;99.90;;;;;;4390035;32;20095;-62
2022/03/03 02:41:53;;;;;;;13.07;7.95;;;-4.80;99.90;;;;;;4392213;32;20091;-61
2022/03/03 02:44:19;;;;;;;17.98;9.02;;;-5.00;99.90;;;;;;4377602;32;20067;-61
2022/03/03 02:46:45;;;;;;;16.10;9.05;;;-4.90;99.90;;;;;;4400904;32;20078;-62
2022/03/03 02:49:12;;;;;;;14.63;8.85;;;-5.00;99.90;;;;;;4402089;32;20197;-61
2022/03/03 02:51:38;;;;;;;14.55;9.05;;;-4.80;99.90;;;;;;4404357;32;20076;-62
2022/03/03 02:54:05;;;;;;;13.20;8.63;;;-4.80;99.90;;;;;;4402089;32;20169;-63
2022/03/03 02:56:31;;;;;;;14.50;9.10;;;-4.60;99.90;;;;;;4377799;32;20085;-62
2022/03/03 02:58:57;;;;;;;16.77;9.85;;;-4.90;99.90;;;;;;4392720;32;20082;-62
2022/03/03 03:01:24;;;;;;;13.73;8.45;;;-4.80;99.90;;;;;;4393910;32;20088;-62
2022/03/03 03:03:50;;;;;;;14.32;8.75;;;-5.00;99.90;;;;;;4392216;32;20153;-62
2022/03/03 03:06:16;;;;;;;14.65;9.30;;;-5.10;99.90;;;;;;4393643;32;20161;-61
2022/03/03 03:08:43;;;;;;;12.85;9.07;;;-4.90;99.90;;;;;;4393713;32;20111;-61
2022/03/03 03:11:09;;;;;;;14.13;9.15;;;-4.90;99.90;;;;;;4379740;32;20086;-62
2022/03/03 03:13:36;;;;;;;14.65;9.10;;;-4.80;99.90;;;;;;4393618;32;20161;-62
2022/03/03 03:16:02;;;;;;;13.98;9.35;;;-4.60;99.90;;;;;;4393978;32;20098;-62
2022/03/03 03:18:29;;;;;;;15.18;9.32;;;-4.80;99.90;;;;;;4392164;32;20065;-62
2022/03/03 03:20:55;;;;;;;16.75;9.70;;;-4.80;99.90;;;;;;4379418;32;20174;-62
2022/03/03 03:23:23;;;;;;;14.77;9.45;;;-5.00;99.90;;;;;;4379960;32;20094;-63
2022/03/03 03:25:50;;;;;;;12.15;8.73;;;-5.00;99.90;;;;;;4393487;32;20082;-62
2022/03/03 03:28:19;;;;;;;14.80;9.18;;;-5.00;99.90;;;;;;4393191;32;20154;-62
2022/03/03 03:30:46;;;;;;;14.23;9.55;;;-4.80;99.90;;;;;;4391966;32;20153;-62
2022/03/03 03:33:13;;;;;;;16.42;8.90;;;-4.70;99.90;;;;;;4391644;32;20163;-62
2022/03/03 03:35:40;;;;;;;15.70;9.70;;;-4.60;99.90;;;;;;4393659;32;20153;-62
2022/03/03 03:38:06;;;;;;;14.38;9.18;;;-4.60;99.90;;;;;;4391946;32;20081;-61
2022/03/03 03:40:33;;;;;;;14.75;9.10;;;-4.80;99.90;;;;;;4391955;32;20585;-62
2022/03/03 03:42:59;;;;;;;14.82;9.43;;;-4.80;99.90;;;;;;4392507;32;20162;-61
2022/03/03 03:45:26;;;;;;;14.70;9.35;;;-4.80;99.90;;;;;;4393033;32;20467;-61
2022/03/03 03:47:52;;;;;;;13.80;9.20;;;-5.00;99.90;;;;;;4395655;32;20100;-61
2022/03/03 03:50:19;;;;;;;15.00;8.93;;;-5.00;99.90;;;;;;4391995;32;20089;-61
2022/03/03 03:52:45;;;;;;;12.13;7.82;;;-5.10;99.90;;;;;;4391822;32;20093;-62
2022/03/03 03:55:13;;;;;;;11.00;8.10;;;-5.20;99.90;;;;;;4391656;32;20153;-61
2022/03/03 03:57:39;;;;;;;13.45;8.57;;;-5.00;99.90;;;;;;4392226;32;20537;-63
2022/03/03 04:00:10;;;;;;;13.40;8.52;;;-5.00;99.90;;;;;;4391992;32;20093;-61
2022/03/03 04:02:37;;;;;;;12.25;8.38;;;-4.90;99.90;;;;;;4392728;32;20488;-62
2022/03/03 04:05:03;;;;;;;13.07;7.87;;;-5.20;99.90;;;;;;4391388;32;20577;-61
2022/03/03 04:07:30;;;;;;;12.52;7.80;;;-5.30;99.90;;;;;;4392629;32;20184;-61
2022/03/03 04:09:56;;;;;;;11.82;7.97;;;-5.40;99.90;;;;;;4391231;32;20111;-61
2022/03/03 04:12:22;;;;;;;14.63;8.55;;;-5.30;99.90;;;;;;4392811;32;20077;-62
2022/03/03 04:14:49;;;;;;;13.85;8.65;;;-5.10;99.90;;;;;;4378915;32;20165;-61
2022/03/03 04:17:15;;;;;;;12.00;7.72;;;-5.20;99.90;;;;;;4378964;32;20103;-61
2022/03/03 04:19:41;;;;;;;13.90;8.65;;;-5.10;99.90;;;;;;4392721;32;20084;-61
2022/03/03 04:22:08;;;;;;;14.70;9.13;;;-5.00;99.90;;;;;;4392515;32;20077;-61
2022/03/03 04:24:34;;;;;;;14.25;8.90;;;-4.80;99.90;;;;;;4391286;32;20073;-60
2022/03/03 04:27:00;;;;;;;13.30;8.55;;;-4.90;99.90;;;;;;4390643;32;20521;-62
2022/03/03 04:29:27;;;;;;;16.35;9.23;;;-4.90;99.90;;;;;;4391119;32;20081;-61
2022/03/03 04:31:54;;;;;;;13.62;8.18;;;-4.90;99.90;;;;;;4390869;32;20137;-62
2022/03/03 04:34:21;;;;;;;14.70;8.70;;;-5.00;99.90;;;;;;4390959;32;20165;-62
2022/03/03 04:36:47;;;;;;;12.80;8.05;;;-4.90;99.90;;;;;;4378342;32;20077;-61
2022/03/03 04:39:14;;;;;;;15.10;8.68;;;-4.80;99.90;;;;;;4392431;32;20078;-62
2022/03/03 04:41:41;;;;;;;14.15;8.00;;;-4.70;99.90;;;;;;4391544;32;20481;-61
2022/03/03 04:44:07;;;;;;;11.45;6.70;;;-4.60;99.90;;;;;;4390582;32;20093;-61
2022/03/03 04:46:34;;;;;;;11.80;6.87;;;-4.70;99.90;;;;;;4390737;32;20145;-61
2022/03/03 04:49:01;;;;;;;13.57;8.27;;;-4.70;99.90;;;;;;4390499;32;20452;-60
2022/03/03 04:51:32;;;;;;;12.15;7.50;;;-4.80;99.90;;;;;;4390536;32;20089;-62
2022/03/03 04:53:58;;;;;;;12.57;8.15;;;-4.70;99.90;;;;;;4378389;32;20065;-61
2022/03/03 04:56:24;;;;;;;15.50;9.00;;;-5.10;99.90;;;;;;4390641;32;20520;-62
2022/03/03 04:58:51;;;;;;;11.63;7.32;;;-4.90;99.90;;;;;;4390366;32;20463;-61
2022/03/03 05:01:17;;;;;;;11.23;7.22;;;-4.90;99.90;;;;;;4392185;32;20456;-62
2022/03/03 05:03:44;;;;;;;11.30;7.15;;;-4.90;99.90;;;;;;4378076;32;20610;-62
2022/03/03 05:06:10;;;;;;;14.20;8.43;;;-5.10;99.90;;;;;;4392321;32;20181;-60
2022/03/03 05:08:36;;;;;;;10.45;6.85;;;-5.10;99.90;;;;;;4377880;32;20458;-62
2022/03/03 05:11:03;;;;;;;11.75;7.32;;;-5.10;99.90;;;;;;4392240;32;20073;-60
2022/03/03 05:13:29;;;;;;;12.65;7.50;;;-5.10;99.90;;;;;;4392037;32;20069;-59
2022/03/03 05:15:56;;;;;;;13.68;7.90;;;-4.80;99.90;;;;;;4390284;32;20116;-62
2022/03/03 05:18:22;;;;;;;14.38;7.68;;;-4.80;99.90;;;;;;4390082;32;20085;-62
2022/03/03 05:20:48;;;;;;;13.38;7.30;;;-4.90;99.90;;;;;;4389725;32;20181;-62
2022/03/03 05:23:15;;;;;;;11.27;6.72;;;-5.00;99.90;;;;;;4391770;32;20078;-60
2022/03/03 05:25:41;;;;;;;12.43;7.40;;;-4.90;99.90;;;;;;4390365;32;20155;-60
2022/03/03 05:28:07;;;;;;;14.05;7.12;;;-4.90;99.90;;;;;;4390274;32;20169;-60
2022/03/03 05:30:34;;;;;;;12.00;6.25;;;-4.80;99.90;;;;;;4377819;32;20112;-61
2022/03/03 05:33:00;;;;;;;12.55;6.95;;;-4.70;99.90;;;;;;4391702;32;20092;-61
2022/03/03 05:35:27;;;;;;;10.95;6.50;;;-4.60;99.90;;;;;;4377614;32;20089;-61
2022/03/03 05:37:53;;;;;;;12.85;7.97;;;-4.40;99.90;;;;;;4391886;32;20127;-60
2022/03/03 05:40:20;;;;;;;12.18;7.60;;;-4.20;99.90;;;;;;4391744;32;20093;-60
2022/03/03 05:42:46;;;;;;;12.25;7.57;;;-4.60;99.90;;;;;;4391626;32;20614;-61
2022/03/03 05:45:13;;;;;;;10.90;6.90;;;-4.10;99.90;;;;;;4391432;32;20092;-61
2022/03/03 05:47:40;;;;;;;11.55;8.13;;;-4.30;99.90;;;;;;4391584;32;20504;-59
2022/03/03 05:50:08;;;;;;;12.20;7.97;;;-4.00;99.90;;;;;;4391103;32;20173;-60
2022/03/03 05:52:34;;;;;;;13.18;8.05;;;-4.10;99.90;;;;;;4377997;32;20090;-60
2022/03/03 05:55:00;;;;;;;11.93;7.35;;;-3.70;99.90;;;;;;4391406;32;20065;-60
2022/03/03 05:57:45;;;;;;;13.20;8.07;;;-4.40;99.90;;;;;;4390378;32;20097;-59
2022/03/03 06:00:15;;;;;;;11.25;7.35;;;-4.30;99.90;;;;;;4389685;32;20456;-59
2022/03/03 06:02:54;;;;;;;12.65;7.78;;;-4.30;99.90;;;;;;4391749;32;20137;-60
2022/03/03 06:05:27;;;;;;;12.68;7.57;;;-4.50;99.90;;;;;;4389638;32;20527;-60
2022/03/03 06:08:02;;;;;;;11.65;7.07;;;-4.50;99.90;;;;;;4391802;32;20143;-60
2022/03/03 06:10:35;;;;;;;11.32;7.47;;;-4.40;99.90;;;;;;4391986;32;20162;-62
2022/03/03 06:13:25;;;;;;;12.18;7.12;;;-4.50;99.90;;;;;;4389932;32;20065;-61
2022/03/03 06:15:54;;;;;;;11.95;7.37;;;-4.40;99.90;;;;;;4391010;32;20542;-60
2022/03/03 06:18:27;;;;;;;12.75;7.93;;;-4.40;99.90;;;;;;4390049;32;20150;-60
2022/03/03 06:20:54;;;;;;;13.50;8.10;;;-4.30;99.90;;;;;;4390926;32;20580;-61
2022/03/03 06:23:21;;;;;;;12.32;7.37;;;-4.00;99.90;;;;;;4389752;32;20089;-60
2022/03/03 06:25:59;;;;;;;11.48;7.00;;;-4.00;99.90;;;;;;4391805;32;20096;-60
2022/03/03 06:28:25;;;;;;;11.05;6.40;;;-4.20;99.90;;;;;;4377811;32;20157;-60
2022/03/03 06:30:52;;;;;;;10.75;6.60;;;-4.40;99.90;;;;;;4391429;32;20096;-61
2022/03/03 06:33:18;;;;;;;10.60;7.00;;;-4.40;99.90;;;;;;4393517;32;20082;-62
2022/03/03 06:35:44;;;;;;;11.02;6.62;;;-4.20;99.90;;;;;;4393070;32;20078;-61
2022/03/03 06:38:10;;;;;;;9.57;5.78;;;-4.30;99.90;;;;;;4392699;32;20078;-59
2022/03/03 06:40:38;;;;;;;12.05;8.10;;;-4.40;99.90;;;;;;4392573;32;20153;-60
2022/03/03 06:43:04;;;;;;;12.20;7.87;;;-4.40;99.90;;;;;;4393745;32;20078;-60
2022/03/03 06:45:32;;;;;;;10.63;7.20;;;-4.10;99.90;;;;;;4392866;32;20156;-59
2022/03/03 06:48:01;;;;;;;10.85;7.50;;;-4.10;99.90;;;;;;4392637;32;20584;-61
2022/03/03 06:50:28;;;;;;;10.23;7.55;;;-4.20;99.90;;;;;;4393411;32;20097;-59
2022/03/03 06:52:55;;;;;;;12.73;7.90;;;-4.20;99.90;;;;;;4392015;32;20084;-60
2022/03/03 06:55:25;;;;;;;13.10;7.90;;;-4.20;99.90;;;;;;4393768;32;20078;-61
2022/03/03 06:57:54;;;;;;;11.55;7.85;;;-4.10;99.90;;;;;;4393661;32;20081;-60
2022/03/03 07:00:25;;;;;;;9.95;6.97;;;-4.20;99.90;;;;;;4391994;32;20074;-59
2022/03/03 07:02:53;;;;;;;13.10;7.85;;;-4.30;99.90;;;;;;4394626;32;20679;-59
2022/03/03 07:05:21;;;;;;;11.25;7.30;;;-4.20;99.90;;;;;;4368154;32;20086;-59
2022/03/03 07:07:52;;;;;;;11.15;7.15;;;-4.10;99.90;;;;;;4393493;32;20069;-61
2022/03/03 07:10:23;;;;;;;12.50;8.05;;;-4.00;99.90;;;;;;4392118;32;20097;-60
2022/03/03 07:12:53;;;;;;;14.05;8.35;;;-4.10;99.90;;;;;;4393318;32;20085;-61
2022/03/03 07:15:21;;;;;;;11.80;8.00;;;-4.00;99.90;;;;;;4393426;32;20507;-60
2022/03/03 07:17:51;;;;;;;11.23;6.85;;;-3.80;99.90;;;;;;4392446;32;20184;-60
2022/03/03 07:20:27;;;;;;;12.52;7.60;;;-3.80;99.90;;;;;;4393408;32;20082;-60
2022/03/03 07:23:00;;;;;;;11.63;7.30;;;-3.70;99.90;;;;;;4392266;32;20500;-60
2022/03/03 07:25:51;;;;;;;11.50;7.22;;;-3.80;99.90;;;;;;4391655;32;20101;-62
2022/03/03 07:28:20;;;;;;;13.55;8.32;;;-4.00;99.90;;;;;;4393579;32;20073;-62
2022/03/03 07:30:51;;;;;;;12.93;8.02;;;-3.60;99.90;;;;;;4391968;32;20074;-61
2022/03/03 07:33:45;;;;;;;11.77;7.90;;;-3.50;99.90;;;;;;4393339;32;20170;-60
2022/03/03 07:36:18;;;;;;;12.02;7.22;;;-3.50;99.90;;;;;;4393251;32;20509;-60
2022/03/03 07:39:04;;;;;;;12.63;8.13;;;-3.70;99.90;;;;;;4379072;32;20088;-60
2022/03/03 07:41:31;;;;;;;12.82;7.15;;;-3.90;99.90;;;;;;4393152;32;20081;-59
2022/03/03 07:43:59;;;;;;;12.55;7.22;;;-3.60;99.90;;;;;;4391681;32;20085;-60
2022/03/03 07:46:26;;;;;;;10.75;7.43;;;-4.00;99.90;;;;;;4391473;32;20069;-59
2022/03/03 07:48:56;;;;;;;13.10;7.87;;;-3.80;99.90;;;;;;4392825;32;20085;-62
2022/03/03 07:51:24;;;;;;;11.55;7.40;;;-3.20;99.90;;;;;;4379505;32;20081;-60
2022/03/03 07:53:50;;;;;;;12.30;7.68;;;-3.60;99.90;;;;;;4393259;32;20084;-60
2022/03/03 07:56:26;;;;;;;11.77;6.57;;;-3.10;99.90;;;;;;4392128;32;20078;-62
2022/03/03 07:59:02;;;;;;;12.20;7.25;;;-3.40;99.90;;;;;;4391538;32;20132;-62
2022/03/03 08:01:31;;;;;;;12.98;7.45;;;-3.10;99.90;;;;;;4391267;32;20077;-61
2022/03/03 08:04:01;;;;;;;12.50;7.22;;;-2.90;99.90;;;;;;4378585;32;20077;-62
2022/03/03 08:06:30;;;;;;;13.48;7.57;;;-2.50;99.90;;;;;;4392462;32;20081;-61
2022/03/03 08:08:59;;;;;;;10.77;6.78;;;-2.70;99.90;;;;;;4378599;32;20089;-60
2022/03/03 08:11:28;;;;;;;9.65;6.05;;;-2.40;99.90;;;;;;4390834;32;20607;-60
2022/03/03 08:13:57;;;;;;;11.60;6.90;;;-2.30;99.90;;;;;;4378719;32;20508;-61
2022/03/03 08:16:24;;;;;;;11.93;6.85;;;-2.10;99.90;;;;;;4392676;32;20084;-60
2022/03/03 08:18:50;;;;;;;11.60;7.75;;;-2.40;99.90;;;;;;4392412;32;20158;-60
2022/03/03 08:21:17;;;;;;;10.52;7.07;;;-2.40;99.90;;;;;;4392156;32;20078;-60
2022/03/03 08:23:44;;;;;;;11.88;7.50;;;-2.20;99.90;;;;;;4392338;32;20084;-67
2022/03/03 08:26:12;;;;;;;12.10;7.47;;;-2.30;99.90;;;;;;4379250;32;20082;-61
2022/03/03 08:28:42;;;;;;;11.12;7.60;;;-1.80;99.90;;;;;;4390972;32;20073;-62
2022/03/03 08:31:13;;;;;;;11.40;7.50;;;-1.80;99.90;;;;;;4394280;32;20089;-61
2022/03/03 08:33:44;;;;;;;10.35;7.53;;;-2.40;99.90;;;;;;4368008;32;20077;-61
2022/03/03 08:36:42;;;;;;;12.88;7.45;;;-2.70;99.90;;;;;;4391372;32;20078;-60
2022/03/03 08:39:08;;;;;;;10.50;6.95;;;-2.30;99.90;;;;;;4392829;32;20081;-61
2022/03/03 08:41:40;;;;;;;12.15;7.32;;;-2.30;99.90;;;;;;4391779;32;20066;-61
2022/03/03 08:44:08;;;;;;;10.32;7.70;;;-2.30;99.90;;;;;;4400382;32;20074;-61
2022/03/03 08:46:38;;;;;;;10.65;6.90;;;-2.30;99.90;;;;;;4402232;32;20097;-62
2022/03/03 08:49:08;;;;;;;9.77;6.85;;;-1.50;99.90;;;;;;4386475;32;20084;-62
2022/03/03 08:51:36;;;;;;;12.13;7.10;;;-1.90;99.90;;;;;;4398234;32;20070;-68
2022/03/03 08:54:02;;;;;;;14.35;8.20;;;-2.10;99.90;;;;;;4395950;32;20213;-70
2022/03/03 08:56:29;;;;;;;11.80;7.80;;;-1.90;99.90;;;;;;4381917;32;20588;-63
2022/03/03 08:58:55;;;;;;;11.55;7.47;;;-1.50;99.90;;;;;;4395924;32;20085;-63
2022/03/03 09:01:22;;;;;;;12.68;7.90;;;-1.50;99.90;;;;;;4390826;32;20079;-62
2022/03/03 09:03:48;;;;;;;13.05;7.68;;;-1.60;99.90;;;;;;4390794;32;20100;-60
2022/03/03 09:06:19;;;;;;;13.82;8.60;;;-1.30;99.90;;;;;;4392663;32;20078;-61
2022/03/03 09:08:46;;;;;;;12.43;8.05;;;-1.70;99.90;;;;;;4391986;32;20081;-61
2022/03/03 09:11:15;;;;;;;13.45;8.55;;;-1.70;99.90;;;;;;4391613;32;20091;-60
2022/03/03 09:13:41;;;;;;;12.90;8.68;;;-1.80;99.90;;;;;;4390146;32;20065;-61
2022/03/03 09:16:08;;;;;;;12.68;7.53;;;-2.10;99.90;;;;;;4391875;32;20170;-60
2022/03/03 09:18:34;;;;;;;12.73;7.93;;;-2.20;99.90;;;;;;4391756;32;20074;-61
2022/03/03 09:21:01;;;;;;;12.70;8.07;;;-2.10;99.90;;;;;;4390486;32;20066;-62
2022/03/03 09:23:27;;;;;;;12.77;7.57;;;-1.90;99.90;;;;;;4391601;32;20564;-61
2022/03/03 09:25:54;;;;;;;11.82;7.45;;;-1.70;99.90;;;;;;4390293;32;20102;-60
2022/03/03 09:28:20;;;;;;;12.37;8.32;;;-1.80;99.90;;;;;;4378357;32;20085;-61
2022/03/03 09:30:47;;;;;;;11.60;7.60;;;-1.50;99.90;;;;;;4391438;32;20081;-59
2022/03/03 09:33:14;;;;;;;12.80;8.30;;;-1.80;99.90;;;;;;4391532;32;20085;-61
2022/03/03 09:35:40;;;;;;;10.85;7.12;;;-2.00;99.90;;;;;;4391387;32;20065;-61
2022/03/03 09:38:06;;;;;;;11.35;7.50;;;-1.80;99.90;;;;;;4390030;32;20200;-61
2022/03/03 09:40:33;;;;;;;12.30;7.40;;;-1.50;99.90;;;;;;4391168;32;20085;-61
2022/03/03 09:43:05;;;;;;;11.63;6.97;;;-1.90;99.90;;;;;;4389839;32;20449;-62
2022/03/03 09:45:33;;;;;;;10.52;6.95;;;-1.50;99.90;;;;;;4391537;32;20511;-62
2022/03/03 09:48:03;;;;;;;13.05;8.35;;;-0.90;99.90;;;;;;4391580;32;20154;-61
2022/03/03 09:50:30;;;;;;;12.95;8.23;;;-0.80;99.90;;;;;;4389355;32;20151;-62
2022/03/03 09:52:56;;;;;;;13.02;8.60;;;-1.50;99.90;;;;;;4377487;32;20155;-61
2022/03/03 09:55:24;;;;;;;12.80;8.30;;;-1.30;99.90;;;;;;4377137;32;20084;-62
2022/03/03 09:57:51;;;;;;;13.25;8.52;;;-1.50;99.90;;;;;;4364648;32;20086;-60
2022/03/03 10:00:18;;;;;;;13.00;7.72;;;-1.50;99.90;;;;;;4389750;32;20069;-60
2022/03/03 10:03:09;;;;;;;12.30;7.85;;;-1.30;99.90;;;;;;4391005;32;20513;-61
2022/03/03 10:05:49;;;;;;;13.65;9.07;;;-1.50;99.90;;;;;;4389773;32;20096;-62
2022/03/03 10:08:22;;;;;;;12.48;7.45;;;-1.70;99.90;;;;;;4393695;32;20092;-61
2022/03/03 10:11:03;;;;;;;14.82;9.02;;;-1.60;99.90;;;;;;4393936;32;20524;-61
2022/03/03 10:13:52;;;;;;;13.45;8.10;;;-1.80;99.90;;;;;;4394283;32;20115;-61
2022/03/03 10:16:30;;;;;;;11.40;7.47;;;-2.10;99.90;;;;;;4394331;32;20073;-62
2022/03/03 10:19:05;;;;;;;13.85;7.72;;;-2.30;99.90;;;;;;4394670;32;20089;-62
2022/03/03 10:21:33;;;;;;;12.77;8.40;;;-1.70;99.90;;;;;;4368725;32;20078;-60
2022/03/03 10:24:15;;;;;;;13.00;7.65;;;-1.90;99.90;;;;;;4394797;32;20097;-61
2022/03/03 10:26:42;;;;;;;15.98;9.20;;;-1.70;99.90;;;;;;4380070;32;20096;-60
2022/03/03 10:29:19;;;;;;;14.95;9.27;;;-2.00;99.90;;;;;;4392442;32;20058;-61
2022/03/03 10:31:51;;;;;;;16.08;9.32;;;-1.60;99.90;;;;;;4392388;32;20476;-61
2022/03/03 10:34:19;;;;;;;13.45;8.13;;;-1.70;99.90;;;;;;4392775;32;20097;-60
2022/03/03 10:37:00;;;;;;;12.98;7.87;;;-1.90;99.90;;;;;;4392670;32;20080;-60
2022/03/03 10:39:39;;;;;;;13.20;8.40;;;-1.40;99.90;;;;;;4379841;32;20084;-61
2022/03/03 10:42:17;;;;;;;14.10;9.25;;;-1.50;99.90;;;;;;4394842;32;20077;-60
2022/03/03 10:44:43;;;;;;;15.15;8.98;;;-1.70;99.90;;;;;;4394445;32;20152;-60
2022/03/03 10:47:16;;;;;;;16.20;8.57;;;-1.30;99.90;;;;;;4393021;32;20073;-61
2022/03/03 10:49:46;;;;;;;13.73;8.20;;;-1.00;99.90;;;;;;4379595;32;20086;-60
2022/03/03 10:52:24;;;;;;;15.50;8.57;;;-0.80;99.90;;;;;;4394482;32;20073;-61
2022/03/03 10:55:07;;;;;;;12.63;7.93;;;-0.90;99.90;;;;;;4394834;32;20090;-60
2022/03/03 10:57:43;;;;;;;12.37;8.30;;;-0.70;99.90;;;;;;4394157;32;20065;-60
2022/03/03 11:00:24;;;;;;;15.02;8.52;;;-0.80;99.90;;;;;;4393865;32;20069;-60
2022/03/03 11:02:55;;;;;;;13.77;8.65;;;-1.40;99.90;;;;;;4380265;32;20069;-60
2022/03/03 11:05:25;;;;;;;13.43;8.55;;;-0.70;99.90;;;;;;4392166;32;20065;-61
2022/03/03 11:07:56;;;;;;;13.40;8.43;;;-0.70;99.90;;;;;;4392870;32;20146;-60
2022/03/03 11:10:27;;;;;;;15.13;9.02;;;-0.90;99.90;;;;;;4379805;32;20080;-61
2022/03/03 11:12:55;;;;;;;12.73;7.82;;;-1.30;99.90;;;;;;4392270;32;20156;-61
2022/03/03 11:15:24;;;;;;;14.43;8.10;;;-1.20;99.90;;;;;;4366589;32;20089;-61
2022/03/03 11:17:53;;;;;;;15.25;8.80;;;-1.10;99.90;;;;;;4379122;32;20066;-60
2022/03/03 11:20:20;;;;;;;14.52;8.75;;;-1.00;99.90;;;;;;4367383;32;20165;-60
2022/03/03 11:22:48;;;;;;;13.10;8.95;;;-1.20;99.90;;;;;;4379623;32;20099;-60
2022/03/03 11:25:19;;;;;;;14.38;8.75;;;-1.10;99.90;;;;;;4391720;32;20078;-60
2022/03/03 11:27:46;;;;;;;16.15;9.32;;;-1.10;99.90;;;;;;4378904;32;20090;-59
2022/03/03 11:30:27;;;;;;;15.25;9.40;;;-1.40;99.90;;;;;;4379423;32;20074;-60
2022/03/03 11:33:27;;;;;;;13.45;8.20;;;-1.20;99.90;;;;;;4391767;32;20155;-59
2022/03/03 11:36:07;;;;;;;12.48;7.40;;;-1.60;99.90;;;;;;4380254;32;20074;-60
2022/03/03 11:38:55;;;;;;;12.82;8.52;;;-1.10;99.90;;;;;;4391797;32;20154;-60
2022/03/03 11:41:51;;;;;;;13.77;8.30;;;-1.80;99.90;;;;;;4391802;32;20201;-60
2022/03/03 11:44:30;;;;;;;14.20;8.00;;;-1.60;99.90;;;;;;4391366;32;20078;-61
2022/03/03 11:46:57;;;;;;;13.38;7.97;;;-1.50;99.90;;;;;;4379112;32;20646;-60
2022/03/03 11:49:26;;;;;;;14.73;8.13;;;-1.40;99.90;;;;;;4391013;32;20089;-61
2022/03/03 11:51:56;;;;;;;12.23;7.18;;;-1.80;99.90;;;;;;4391561;32;20223;-61
2022/03/03 11:54:29;;;;;;;13.02;8.18;;;-2.10;99.90;;;;;;4391294;32;20078;-62
2022/03/03 11:57:08;;;;;;;13.70;8.60;;;-1.80;99.90;;;;;;4378471;32;20082;-60
2022/03/03 11:59:40;;;;;;;15.55;8.55;;;-1.80;99.90;;;;;;4391335;32;20066;-60
2022/03/03 12:02:07;;;;;;;14.18;8.18;;;-1.70;99.90;;;;;;4392894;32;20076;-59
2022/03/03 12:04:34;;;;;;;11.73;7.22;;;-2.00;99.90;;;;;;4391861;32;20077;-60
2022/03/03 12:07:01;;;;;;;12.80;8.07;;;-2.10;99.90;;;;;;4391327;32;20177;-61
2022/03/03 12:09:32;;;;;;;13.02;7.60;;;-2.20;99.90;;;;;;4392890;32;20100;-62
2022/03/03 12:12:16;;;;;;;13.07;7.62;;;-2.10;99.90;;;;;;4366293;32;20081;-63
2022/03/03 12:14:55;;;;;;;13.05;7.15;;;-2.10;99.90;;;;;;4391115;32;20097;-61
2022/03/03 12:17:59;;;;;;;13.62;7.47;;;-2.20;99.90;;;;;;4379411;32;20085;-60
2022/03/03 12:20:34;;;;;;;12.13;7.18;;;-2.00;99.90;;;;;;4391237;32;20493;-60
2022/03/03 12:23:18;;;;;;;14.65;7.70;;;-1.60;99.90;;;;;;4392955;32;20150;-60
2022/03/03 12:26:00;;;;;;;14.02;8.18;;;-1.80;99.90;;;;;;4392274;32;20077;-60
2022/03/03 12:28:47;;;;;;;15.80;8.02;;;-1.60;99.90;;;;;;4393101;32;20497;-60
2022/03/03 12:31:29;;;;;;;11.63;7.22;;;-1.90;99.90;;;;;;4391827;32;20085;-63
2022/03/03 12:33:59;;;;;;;13.30;7.47;;;-1.90;99.90;;;;;;4390620;32;20162;-61
2022/03/03 12:36:26;;;;;;;10.70;7.28;;;-1.80;99.90;;;;;;4392667;32;20080;-61
2022/03/03 12:38:54;;;;;;;11.95;7.00;;;-1.50;99.90;;;;;;4391033;32;20098;-60
2022/03/03 12:41:26;;;;;;;12.02;6.68;;;-1.70;99.90;;;;;;4390840;32;20069;-60
2022/03/03 12:43:52;;;;;;;12.20;7.37;;;-1.50;99.90;;;;;;4392134;32;20122;-60
2022/03/03 12:46:19;;;;;;;13.20;7.57;;;-1.60;99.90;;;;;;4392062;32;20073;-61